Emporia, KS

2:08 PM CDT on May 30, 2015 (GMT -0500)
Emporia Municipal | | Change Station
CLOSE
Current Station
Airport
Location: Emporia,
Elevation: 1207 ft
Nearby Weather Stations
Active Advisory: Flood Warning

Elev 1207 ft 38.33 °N, 96.19 °W | Updated 15 minutes ago

Overcast
Overcast
58 °F
Feels Like 58 °F
N
10
Wind Variable Wind from NNW

Today
High -- | Low -- °F
--% Chance of Precip.
Yesterday
High -- | Low -- °F
Precip. -- in
6:03 AM 8:41 PM
Waxing Gibbous, 91% visible
Pressure 30.16 in
Visibility 10.0 miles
Clouds Overcast 1700 ft
Dew Point 52 °F
Humidity 81%
Rainfall 0.00 in
Snow Depth Not available.
UV 4 out of 12
Pollen 7.60 out of 12
Air Quality Not available.
Flu Activity No Activity
METAR KEMP 301853Z AUTO 34009KT 10SM OVC017 14/11 A3016 RMK AO2 SLP213 T01440111

More Conditions Fewer Conditions

Pressure 30.16 in
Visibility 10.0 miles
Clouds Overcast 1700 ft
Dew Point 52 °F
Humidity 81%
Rainfall 0.00 in
Snow Depth Not available.
UV 4 out of 12
Pollen 7.60 out of 12
Air Quality Not available.
Flu Activity No Activity
METAR KEMP 301853Z AUTO 34009KT 10SM OVC017 14/11 A3016 RMK AO2 SLP213 T01440111

More Conditions Fewer Conditions

10-Day Weather Forecast

Almanac

Astronomy

May. 30, 2015 Rise Set
Actual Time
Civil Twilight
Nautical Twilight
Astronomical Twilight
Moon
Length of Visible Light
Length of Day
Tomorrow will be .
, % of the Moon is Illuminated

Today's Extremes

State Highs State Lows

Community

WunderPhotos

Upload Photos

1,825,618 photos uploaded!

WunderBlogs® & News

Nearby

Air Quality

  Air Quality AQ Index Pollutant
Not available.

Snow Depth

Station Depth Elevation

Earthquake Activity

City Distance Mag. Time & Date
Minimum magnitude displayed is 2.5.

Coastal Water Temperatures

Place Temperature

Stations

Nearby Weather Stations

Station Location Temp. Windchill Dew Point Humidity Wind Precip. Elev Updated Type
                   
Flood Warning
Statement as of 1:59 PM CDT on May 30, 2015

The Flood Warning continues for
the Neosho river near Neosho Rapids.
* Until late Sunday night.
* At 1:30 PM Saturday the stage was 23.7 feet.
* Flood stage is 22.0 feet.
* Moderate flooding is occurring and moderate flooding is forecast.
* Forecast... the river will continue to fall to below flood stage by
Sunday morning.
* Impact... at 23.0 feet... water overtops Road 145 on the west side of
the bridge over the Neosho river.


Lat... Lon 3838 9606 3842 9605 3830 9586 3826 9588